sensor_id;sensor_type;location;lat;lon;timestamp;temperature;humidity
64743;HTU21D;51177;45.018;38.982;2022-11-11T00:00:39;5.82;80.65
64743;HTU21D;51177;45.018;38.982;2022-11-11T00:03:23;5.89;80.61
64743;HTU21D;51177;45.018;38.982;2022-11-11T00:06:09;5.93;80.38
64743;HTU21D;51177;45.018;38.982;2022-11-11T00:08:58;5.99;80.31
64743;HTU21D;51177;45.018;38.982;2022-11-11T00:11:43;5.99;81.42
64743;HTU21D;51177;45.018;38.982;2022-11-11T00:14:27;5.92;80.98
64743;HTU21D;51177;45.018;38.982;2022-11-11T00:17:13;5.91;81.00
64743;HTU21D;51177;45.018;38.982;2022-11-11T00:20:16;5.93;81.18
64743;HTU21D;51177;45.018;38.982;2022-11-11T00:23:23;5.91;81.00
64743;HTU21D;51177;45.018;38.982;2022-11-11T00:26:27;5.93;81.12
64743;HTU21D;51177;45.018;38.982;2022-11-11T00:29:12;5.92;80.77
64743;HTU21D;51177;45.018;38.982;2022-11-11T00:31:58;5.94;80.89
64743;HTU21D;51177;45.018;38.982;2022-11-11T00:35:02;5.93;81.34
64743;HTU21D;51177;45.018;38.982;2022-11-11T00:38:08;5.87;82.23
64743;HTU21D;51177;45.018;38.982;2022-11-11T00:40:53;5.83;81.97
64743;HTU21D;51177;45.018;38.982;2022-11-11T00:43:38;5.80;82.82
64743;HTU21D;51177;45.018;38.982;2022-11-11T00:46:22;5.76;82.99
64743;HTU21D;51177;45.018;38.982;2022-11-11T00:49:25;5.74;82.01
64743;HTU21D;51177;45.018;38.982;2022-11-11T00:52:28;5.79;81.57
64743;HTU21D;51177;45.018;38.982;2022-11-11T00:55:12;5.83;81.47
64743;HTU21D;51177;45.018;38.982;2022-11-11T01:48:40;5.78;81.78
64743;HTU21D;51177;45.018;38.982;2022-11-11T01:54:49;5.86;81.69
64743;HTU21D;51177;45.018;38.982;2022-11-11T07:28:44;7.67;80.40
64743;HTU21D;51177;45.018;38.982;2022-11-11T07:31:30;7.74;80.25
64743;HTU21D;51177;45.018;38.982;2022-11-11T07:34:15;7.67;80.74
64743;HTU21D;51177;45.018;38.982;2022-11-11T07:37:00;7.53;80.66
64743;HTU21D;51177;45.018;38.982;2022-11-11T07:39:44;7.53;80.60
64743;HTU21D;51177;45.018;38.982;2022-11-11T09:13:26;8.31;78.94
64743;HTU21D;51177;45.018;38.982;2022-11-11T09:16:10;8.28;79.08
64743;HTU21D;51177;45.018;38.982;2022-11-11T09:18:55;8.33;79.11
64743;HTU21D;51177;45.018;38.982;2022-11-11T09:21:41;8.41;79.04
64743;HTU21D;51177;45.018;38.982;2022-11-11T09:24:25;8.51;78.90
64743;HTU21D;51177;45.018;38.982;2022-11-11T09:27:11;8.51;78.75
64743;HTU21D;51177;45.018;38.982;2022-11-11T09:29:55;8.53;78.87
64743;HTU21D;51177;45.018;38.982;2022-11-11T09:32:42;8.64;78.75
64743;HTU21D;51177;45.018;38.982;2022-11-11T09:35:26;8.75;78.59
64743;HTU21D;51177;45.018;38.982;2022-11-11T09:38:11;8.85;78.38
64743;HTU21D;51177;45.018;38.982;2022-11-11T09:47:37;8.88;78.46
64743;HTU21D;51177;45.018;38.982;2022-11-11T09:50:26;8.96;78.37
64743;HTU21D;51177;45.018;38.982;2022-11-11T09:53:23;9.10;78.21
64743;HTU21D;51177;45.018;38.982;2022-11-11T09:56:11;9.26;77.98
64743;HTU21D;51177;45.018;38.982;2022-11-11T09:58:59;9.34;77.79
64743;HTU21D;51177;45.018;38.982;2022-11-11T10:01:53;9.39;77.76
64743;HTU21D;51177;45.018;38.982;2022-11-11T10:07:46;9.49;77.44
64743;HTU21D;51177;45.018;38.982;2022-11-11T10:10:41;9.49;77.55
64743;HTU21D;51177;45.018;38.982;2022-11-11T10:13:29;9.53;77.34
64743;HTU21D;51177;45.018;38.982;2022-11-11T10:22:22;9.44;77.33
64743;HTU21D;51177;45.018;38.982;2022-11-11T10:27:54;9.24;77.46
64743;HTU21D;51177;45.018;38.982;2022-11-11T10:30:40;9.21;77.06
64743;HTU21D;51177;45.018;38.982;2022-11-11T10:33:27;9.22;77.31
64743;HTU21D;51177;45.018;38.982;2022-11-11T10:36:14;9.26;77.26
64743;HTU21D;51177;45.018;38.982;2022-11-11T10:39:04;9.29;76.92
64743;HTU21D;51177;45.018;38.982;2022-11-11T10:41:49;9.21;77.18
64743;HTU21D;51177;45.018;38.982;2022-11-11T10:44:35;9.25;77.35
64743;HTU21D;51177;45.018;38.982;2022-11-11T10:47:27;9.35;77.18
64743;HTU21D;51177;45.018;38.982;2022-11-11T10:50:15;9.45;77.15
64743;HTU21D;51177;45.018;38.982;2022-11-11T10:56:12;9.42;77.08
64743;HTU21D;51177;45.018;38.982;2022-11-11T10:59:17;9.55;76.95
64743;HTU21D;51177;45.018;38.982;2022-11-11T11:05:07;9.59;76.51
64743;HTU21D;51177;45.018;38.982;2022-11-11T11:07:54;9.50;76.66
64743;HTU21D;51177;45.018;38.982;2022-11-11T11:10:51;9.46;76.61
64743;HTU21D;51177;45.018;38.982;2022-11-11T11:13:42;9.39;76.73
64743;HTU21D;51177;45.018;38.982;2022-11-11T11:16:31;9.32;76.36
64743;HTU21D;51177;45.018;38.982;2022-11-11T11:22:03;9.06;77.02
64743;HTU21D;51177;45.018;38.982;2022-11-11T11:24:49;9.06;76.71
64743;HTU21D;51177;45.018;38.982;2022-11-11T11:27:34;9.05;76.67
64743;HTU21D;51177;45.018;38.982;2022-11-11T11:30:20;9.03;76.49
64743;HTU21D;51177;45.018;38.982;2022-11-11T11:33:06;9.03;76.79
64743;HTU21D;51177;45.018;38.982;2022-11-11T11:35:51;9.06;76.86
64743;HTU21D;51177;45.018;38.982;2022-11-11T11:38:46;9.09;76.69
64743;HTU21D;51177;45.018;38.982;2022-11-11T11:41:37;9.04;76.72
64743;HTU21D;51177;45.018;38.982;2022-11-11T11:44:25;9.02;76.94
64743;HTU21D;51177;45.018;38.982;2022-11-11T11:47:16;9.05;77.03
64743;HTU21D;51177;45.018;38.982;2022-11-11T11:56:03;9.05;76.90
64743;HTU21D;51177;45.018;38.982;2022-11-11T12:22:03;8.63;78.11
64743;HTU21D;51177;45.018;38.982;2022-11-11T12:28:14;8.51;77.95
64743;HTU21D;51177;45.018;38.982;2022-11-11T12:31:23;8.53;78.03
64743;HTU21D;51177;45.018;38.982;2022-11-11T12:46:03;8.61;77.88
64743;HTU21D;51177;45.018;38.982;2022-11-11T12:48:59;8.55;77.91
64743;HTU21D;51177;45.018;38.982;2022-11-11T13:00:25;8.41;78.27
64743;HTU21D;51177;45.018;38.982;2022-11-11T13:15:10;8.41;78.21
64743;HTU21D;51177;45.018;38.982;2022-11-11T13:17:57;8.36;79.14
64743;HTU21D;51177;45.018;38.982;2022-11-11T13:20:49;8.29;79.36
64743;HTU21D;51177;45.018;38.982;2022-11-11T13:23:37;8.19;79.24
64743;HTU21D;51177;45.018;38.982;2022-11-11T13:26:32;8.11;79.18
64743;HTU21D;51177;45.018;38.982;2022-11-11T13:32:23;7.99;79.21
64743;HTU21D;51177;45.018;38.982;2022-11-11T13:35:21;7.89;78.89
64743;HTU21D;51177;45.018;38.982;2022-11-11T13:38:10;7.78;79.11
64743;HTU21D;51177;45.018;38.982;2022-11-11T13:40:57;7.72;79.11
64743;HTU21D;51177;45.018;38.982;2022-11-11T13:43:45;7.65;79.29
64743;HTU21D;51177;45.018;38.982;2022-11-11T13:50:02;7.50;79.45
64743;HTU21D;51177;45.018;38.982;2022-11-11T13:53:01;7.42;79.21
64743;HTU21D;51177;45.018;38.982;2022-11-11T13:55:46;7.37;79.21
64743;HTU21D;51177;45.018;38.982;2022-11-11T13:58:32;7.32;79.24
64743;HTU21D;51177;45.018;38.982;2022-11-11T14:01:17;7.27;79.24
64743;HTU21D;51177;45.018;38.982;2022-11-11T14:04:05;7.23;79.22
64743;HTU21D;51177;45.018;38.982;2022-11-11T14:06:51;7.17;79.19
64743;HTU21D;51177;45.018;38.982;2022-11-11T14:09:51;7.13;79.23
64743;HTU21D;51177;45.018;38.982;2022-11-11T14:13:33;7.11;79.17
64743;HTU21D;51177;45.018;38.982;2022-11-11T14:15:42;7.10;79.18
64743;HTU21D;51177;45.018;38.982;2022-11-11T14:24:45;7.15;79.02
64743;HTU21D;51177;45.018;38.982;2022-11-11T14:27:30;7.16;79.01
64743;HTU21D;51177;45.018;38.982;2022-11-11T14:30:35;7.18;78.95
64743;HTU21D;51177;45.018;38.982;2022-11-11T14:33:29;7.23;78.86
64743;HTU21D;51177;45.018;38.982;2022-11-11T14:39:13;7.30;78.92
64743;HTU21D;51177;45.018;38.982;2022-11-11T14:42:02;7.32;78.79
64743;HTU21D;51177;45.018;38.982;2022-11-11T14:44:49;7.37;78.84
64743;HTU21D;51177;45.018;38.982;2022-11-11T14:47:36;7.41;79.04
64743;HTU21D;51177;45.018;38.982;2022-11-11T14:53:18;7.48;78.90
64743;HTU21D;51177;45.018;38.982;2022-11-11T14:56:03;7.55;78.98
64743;HTU21D;51177;45.018;38.982;2022-11-11T14:58:48;7.57;79.01
64743;HTU21D;51177;45.018;38.982;2022-11-11T15:01:33;7.58;79.24
64743;HTU21D;51177;45.018;38.982;2022-11-11T15:04:17;7.57;79.06
64743;HTU21D;51177;45.018;38.982;2022-11-11T15:07:03;7.58;79.07
64743;HTU21D;51177;45.018;38.982;2022-11-11T15:19:12;7.67;78.86
64743;HTU21D;51177;45.018;38.982;2022-11-11T15:31:03;7.64;79.10
64743;HTU21D;51177;45.018;38.982;2022-11-11T15:37:01;7.64;79.59
64743;HTU21D;51177;45.018;38.982;2022-11-11T15:39:50;7.63;79.26
64743;HTU21D;51177;45.018;38.982;2022-11-11T15:42:37;7.67;79.63
64743;HTU21D;51177;45.018;38.982;2022-11-11T15:45:33;7.67;79.31
64743;HTU21D;51177;45.018;38.982;2022-11-11T15:48:20;7.68;79.27
64743;HTU21D;51177;45.018;38.982;2022-11-11T15:51:15;7.71;79.27
64743;HTU21D;51177;45.018;38.982;2022-11-11T15:54:20;7.71;79.43
64743;HTU21D;51177;45.018;38.982;2022-11-11T16:00:02;7.69;79.50
64743;HTU21D;51177;45.018;38.982;2022-11-11T16:02:48;7.63;79.59
64743;HTU21D;51177;45.018;38.982;2022-11-11T16:05:35;7.61;79.66
64743;HTU21D;51177;45.018;38.982;2022-11-11T16:08:21;7.62;79.62
64743;HTU21D;51177;45.018;38.982;2022-11-11T16:11:08;7.59;79.50
64743;HTU21D;51177;45.018;38.982;2022-11-11T16:13:55;7.58;79.49
64743;HTU21D;51177;45.018;38.982;2022-11-11T16:16:43;7.60;79.42
64743;HTU21D;51177;45.018;38.982;2022-11-11T16:19:35;7.57;79.47
64743;HTU21D;51177;45.018;38.982;2022-11-11T16:22:28;7.55;79.66
64743;HTU21D;51177;45.018;38.982;2022-11-11T16:25:17;7.56;79.49
64743;HTU21D;51177;45.018;38.982;2022-11-11T16:28:03;7.55;79.40
64743;HTU21D;51177;45.018;38.982;2022-11-11T16:30:48;7.58;79.37
64743;HTU21D;51177;45.018;38.982;2022-11-11T16:33:34;7.59;79.33
64743;HTU21D;51177;45.018;38.982;2022-11-11T16:36:19;7.61;79.43
64743;HTU21D;51177;45.018;38.982;2022-11-11T16:39:19;7.57;79.98
64743;HTU21D;51177;45.018;38.982;2022-11-11T16:42:05;7.55;79.89
64743;HTU21D;51177;45.018;38.982;2022-11-11T16:47:40;7.49;79.85
64743;HTU21D;51177;45.018;38.982;2022-11-11T16:50:26;7.49;79.66
64743;HTU21D;51177;45.018;38.982;2022-11-11T16:53:23;7.49;79.68
64743;HTU21D;51177;45.018;38.982;2022-11-11T16:56:14;7.44;79.93
64743;HTU21D;51177;45.018;38.982;2022-11-11T16:59:02;7.41;80.17
64743;HTU21D;51177;45.018;38.982;2022-11-11T17:01:51;7.38;80.41
64743;HTU21D;51177;45.018;38.982;2022-11-11T17:04:56;7.35;80.72
64743;HTU21D;51177;45.018;38.982;2022-11-11T17:07:44;7.33;80.24
64743;HTU21D;51177;45.018;38.982;2022-11-11T17:10:29;7.35;80.40
64743;HTU21D;51177;45.018;38.982;2022-11-11T17:13:22;7.33;80.96
64743;HTU21D;51177;45.018;38.982;2022-11-11T17:16:07;7.30;80.61
64743;HTU21D;51177;45.018;38.982;2022-11-11T17:18:51;7.28;80.69
64743;HTU21D;51177;45.018;38.982;2022-11-11T17:21:36;7.26;80.57
64743;HTU21D;51177;45.018;38.982;2022-11-11T17:24:21;7.27;80.66
64743;HTU21D;51177;45.018;38.982;2022-11-11T17:27:07;7.23;81.06
64743;HTU21D;51177;45.018;38.982;2022-11-11T17:29:53;7.20;80.52
64743;HTU21D;51177;45.018;38.982;2022-11-11T17:32:38;7.19;80.52
64743;HTU21D;51177;45.018;38.982;2022-11-11T17:35:23;7.18;80.34
64743;HTU21D;51177;45.018;38.982;2022-11-11T17:38:08;7.17;80.30
64743;HTU21D;51177;45.018;38.982;2022-11-11T17:40:55;7.16;80.29
64743;HTU21D;51177;45.018;38.982;2022-11-11T17:43:40;7.16;80.24
64743;HTU21D;51177;45.018;38.982;2022-11-11T17:46:25;7.16;80.11
64743;HTU21D;51177;45.018;38.982;2022-11-11T17:49:10;7.18;80.03
64743;HTU21D;51177;45.018;38.982;2022-11-11T17:51:55;7.18;80.00
64743;HTU21D;51177;45.018;38.982;2022-11-11T17:54:40;7.19;79.96
64743;HTU21D;51177;45.018;38.982;2022-11-11T17:57:25;7.20;79.98
64743;HTU21D;51177;45.018;38.982;2022-11-11T18:00:11;7.19;79.95
64743;HTU21D;51177;45.018;38.982;2022-11-11T18:02:57;7.22;79.97
64743;HTU21D;51177;45.018;38.982;2022-11-11T18:05:45;7.26;79.92
64743;HTU21D;51177;45.018;38.982;2022-11-11T18:08:29;7.28;79.92
64743;HTU21D;51177;45.018;38.982;2022-11-11T18:11:15;7.20;79.79
64743;HTU21D;51177;45.018;38.982;2022-11-11T18:13:59;7.11;80.12
64743;HTU21D;51177;45.018;38.982;2022-11-11T18:16:44;7.03;80.85
64743;HTU21D;51177;45.018;38.982;2022-11-11T18:19:29;6.97;80.73
64743;HTU21D;51177;45.018;38.982;2022-11-11T18:22:14;6.90;80.48
64743;HTU21D;51177;45.018;38.982;2022-11-11T18:25:05;6.88;80.63
64743;HTU21D;51177;45.018;38.982;2022-11-11T18:27:51;6.88;81.65
64743;HTU21D;51177;45.018;38.982;2022-11-11T18:30:38;6.81;81.24
64743;HTU21D;51177;45.018;38.982;2022-11-11T18:33:22;6.80;80.92
64743;HTU21D;51177;45.018;38.982;2022-11-11T18:36:08;6.79;81.24
64743;HTU21D;51177;45.018;38.982;2022-11-11T18:38:54;6.80;80.85
64743;HTU21D;51177;45.018;38.982;2022-11-11T18:41:40;6.84;80.73
64743;HTU21D;51177;45.018;38.982;2022-11-11T18:44:24;6.86;80.64
64743;HTU21D;51177;45.018;38.982;2022-11-11T18:47:09;6.86;80.52
64743;HTU21D;51177;45.018;38.982;2022-11-11T18:49:53;6.86;80.52
64743;HTU21D;51177;45.018;38.982;2022-11-11T18:52:38;6.88;80.53
64743;HTU21D;51177;45.018;38.982;2022-11-11T18:55:25;6.94;80.48
64743;HTU21D;51177;45.018;38.982;2022-11-11T18:58:11;7.01;80.34
64743;HTU21D;51177;45.018;38.982;2022-11-11T19:04:18;7.11;80.16
64743;HTU21D;51177;45.018;38.982;2022-11-11T19:07:02;7.13;80.11
64743;HTU21D;51177;45.018;38.982;2022-11-11T19:09:48;7.12;80.22
64743;HTU21D;51177;45.018;38.982;2022-11-11T19:12:37;7.12;80.13
64743;HTU21D;51177;45.018;38.982;2022-11-11T19:15:22;7.11;80.24
64743;HTU21D;51177;45.018;38.982;2022-11-11T19:18:09;7.09;80.35
64743;HTU21D;51177;45.018;38.982;2022-11-11T19:20:54;7.11;80.35
64743;HTU21D;51177;45.018;38.982;2022-11-11T19:23:40;7.14;80.24
64743;HTU21D;51177;45.018;38.982;2022-11-11T19:26:25;7.19;80.15
64743;HTU21D;51177;45.018;38.982;2022-11-11T19:29:12;7.25;80.04
64743;HTU21D;51177;45.018;38.982;2022-11-11T19:31:56;7.27;79.97
64743;HTU21D;51177;45.018;38.982;2022-11-11T19:34:43;7.31;79.88
64743;HTU21D;51177;45.018;38.982;2022-11-11T19:37:27;7.33;79.85
64743;HTU21D;51177;45.018;38.982;2022-11-11T19:40:14;7.37;79.82
64743;HTU21D;51177;45.018;38.982;2022-11-11T19:42:59;7.40;79.76
64743;HTU21D;51177;45.018;38.982;2022-11-11T19:45:45;7.39;79.75
64743;HTU21D;51177;45.018;38.982;2022-11-11T19:48:29;7.40;79.74
64743;HTU21D;51177;45.018;38.982;2022-11-11T19:51:15;7.42;79.77
64743;HTU21D;51177;45.018;38.982;2022-11-11T19:53:59;7.42;80.35
64743;HTU21D;51177;45.018;38.982;2022-11-11T19:56:44;7.40;80.31
64743;HTU21D;51177;45.018;38.982;2022-11-11T19:59:29;7.37;80.24
64743;HTU21D;51177;45.018;38.982;2022-11-11T20:02:16;7.35;80.26
64743;HTU21D;51177;45.018;38.982;2022-11-11T20:05:00;7.32;80.23
64743;HTU21D;51177;45.018;38.982;2022-11-11T20:07:45;7.32;80.27
64743;HTU21D;51177;45.018;38.982;2022-11-11T20:10:37;7.28;80.34
64743;HTU21D;51177;45.018;38.982;2022-11-11T20:13:25;7.29;80.30
64743;HTU21D;51177;45.018;38.982;2022-11-11T20:16:09;7.28;80.41
64743;HTU21D;51177;45.018;38.982;2022-11-11T20:18:54;7.25;80.25
64743;HTU21D;51177;45.018;38.982;2022-11-11T20:21:39;7.24;80.32
64743;HTU21D;51177;45.018;38.982;2022-11-11T20:24:27;7.23;80.36
64743;HTU21D;51177;45.018;38.982;2022-11-11T20:30:24;7.28;80.21
64743;HTU21D;51177;45.018;38.982;2022-11-11T20:33:09;7.31;80.17
64743;HTU21D;51177;45.018;38.982;2022-11-11T20:35:55;7.34;80.44
64743;HTU21D;51177;45.018;38.982;2022-11-11T20:38:43;7.32;80.57
64743;HTU21D;51177;45.018;38.982;2022-11-11T20:41:27;7.29;80.51
64743;HTU21D;51177;45.018;38.982;2022-11-11T20:44:13;7.27;80.60
64743;HTU21D;51177;45.018;38.982;2022-11-11T20:46:58;7.27;80.71
64743;HTU21D;51177;45.018;38.982;2022-11-11T20:49:43;7.24;80.59
64743;HTU21D;51177;45.018;38.982;2022-11-11T20:52:27;7.27;80.58
64743;HTU21D;51177;45.018;38.982;2022-11-11T20:55:12;7.28;80.46
64743;HTU21D;51177;45.018;38.982;2022-11-11T20:57:57;7.29;80.48
64743;HTU21D;51177;45.018;38.982;2022-11-11T21:00:42;7.28;80.46
64743;HTU21D;51177;45.018;38.982;2022-11-11T21:03:26;7.29;80.46
64743;HTU21D;51177;45.018;38.982;2022-11-11T21:06:16;7.32;80.43
64743;HTU21D;51177;45.018;38.982;2022-11-11T21:09:12;7.32;80.28
64743;HTU21D;51177;45.018;38.982;2022-11-11T21:12:00;7.35;80.23
64743;HTU21D;51177;45.018;38.982;2022-11-11T21:14:45;7.39;80.23
64743;HTU21D;51177;45.018;38.982;2022-11-11T21:17:30;7.40;80.19
64743;HTU21D;51177;45.018;38.982;2022-11-11T21:20:15;7.41;80.14
64743;HTU21D;51177;45.018;38.982;2022-11-11T21:22:59;7.43;80.12
64743;HTU21D;51177;45.018;38.982;2022-11-11T21:25:47;7.45;80.11
64743;HTU21D;51177;45.018;38.982;2022-11-11T21:28:32;7.39;80.28
64743;HTU21D;51177;45.018;38.982;2022-11-11T21:31:18;7.34;80.24
64743;HTU21D;51177;45.018;38.982;2022-11-11T21:34:04;7.31;80.27
64743;HTU21D;51177;45.018;38.982;2022-11-11T21:36:50;7.26;80.54
64743;HTU21D;51177;45.018;38.982;2022-11-11T21:39:35;7.19;80.61
64743;HTU21D;51177;45.018;38.982;2022-11-11T21:42:20;7.15;80.65
64743;HTU21D;51177;45.018;38.982;2022-11-11T21:45:05;7.13;80.60
64743;HTU21D;51177;45.018;38.982;2022-11-11T21:47:49;7.12;80.80
64743;HTU21D;51177;45.018;38.982;2022-11-11T21:50:34;7.09;80.59
64743;HTU21D;51177;45.018;38.982;2022-11-11T21:53:18;7.02;80.50
64743;HTU21D;51177;45.018;38.982;2022-11-11T21:56:12;7.00;80.59
64743;HTU21D;51177;45.018;38.982;2022-11-11T21:58:57;7.00;80.53
64743;HTU21D;51177;45.018;38.982;2022-11-11T22:01:41;7.03;80.48
64743;HTU21D;51177;45.018;38.982;2022-11-11T22:04:27;7.07;80.36
64743;HTU21D;51177;45.018;38.982;2022-11-11T22:07:11;7.10;80.27
64743;HTU21D;51177;45.018;38.982;2022-11-11T22:09:56;7.11;80.20
64743;HTU21D;51177;45.018;38.982;2022-11-11T22:12:42;7.08;80.81
64743;HTU21D;51177;45.018;38.982;2022-11-11T22:15:27;7.04;80.49
64743;HTU21D;51177;45.018;38.982;2022-11-11T22:18:13;7.04;80.43
64743;HTU21D;51177;45.018;38.982;2022-11-11T22:21:03;7.04;80.37
64743;HTU21D;51177;45.018;38.982;2022-11-11T22:23:51;7.04;80.69
64743;HTU21D;51177;45.018;38.982;2022-11-11T22:26:39;7.02;80.57
64743;HTU21D;51177;45.018;38.982;2022-11-11T22:29:23;7.01;80.67
64743;HTU21D;51177;45.018;38.982;2022-11-11T22:35:18;6.96;80.96
64743;HTU21D;51177;45.018;38.982;2022-11-11T22:38:04;6.95;80.75
64743;HTU21D;51177;45.018;38.982;2022-11-11T22:40:48;6.95;80.72
64743;HTU21D;51177;45.018;38.982;2022-11-11T22:43:39;6.95;80.63
64743;HTU21D;51177;45.018;38.982;2022-11-11T22:46:26;6.96;80.61
64743;HTU21D;51177;45.018;38.982;2022-11-11T22:49:10;6.95;80.59
64743;HTU21D;51177;45.018;38.982;2022-11-11T22:51:55;6.97;80.52
64743;HTU21D;51177;45.018;38.982;2022-11-11T22:54:40;7.01;80.74
64743;HTU21D;51177;45.018;38.982;2022-11-11T22:57:25;7.01;80.59
64743;HTU21D;51177;45.018;38.982;2022-11-11T23:00:13;7.03;80.63
64743;HTU21D;51177;45.018;38.982;2022-11-11T23:02:58;7.04;80.48
64743;HTU21D;51177;45.018;38.982;2022-11-11T23:05:47;7.05;80.88
64743;HTU21D;51177;45.018;38.982;2022-11-11T23:08:32;7.02;81.24
64743;HTU21D;51177;45.018;38.982;2022-11-11T23:11:19;7.02;80.80
64743;HTU21D;51177;45.018;38.982;2022-11-11T23:14:05;7.04;80.65
64743;HTU21D;51177;45.018;38.982;2022-11-11T23:16:53;7.05;80.65
64743;HTU21D;51177;45.018;38.982;2022-11-11T23:19:37;7.10;80.51
64743;HTU21D;51177;45.018;38.982;2022-11-11T23:22:22;7.13;80.41
64743;HTU21D;51177;45.018;38.982;2022-11-11T23:25:07;7.16;80.46
64743;HTU21D;51177;45.018;38.982;2022-11-11T23:27:53;7.18;80.44
64743;HTU21D;51177;45.018;38.982;2022-11-11T23:30:37;7.20;80.54
64743;HTU21D;51177;45.018;38.982;2022-11-11T23:33:23;7.22;80.52
64743;HTU21D;51177;45.018;38.982;2022-11-11T23:36:08;7.23;80.60
64743;HTU21D;51177;45.018;38.982;2022-11-11T23:38:54;7.24;80.55
64743;HTU21D;51177;45.018;38.982;2022-11-11T23:41:38;7.25;80.47
64743;HTU21D;51177;45.018;38.982;2022-11-11T23:44:24;7.27;80.56
64743;HTU21D;51177;45.018;38.982;2022-11-11T23:47:08;7.27;80.46
64743;HTU21D;51177;45.018;38.982;2022-11-11T23:49:53;7.28;80.43
64743;HTU21D;51177;45.018;38.982;2022-11-11T23:52:40;7.29;80.41
64743;HTU21D;51177;45.018;38.982;2022-11-11T23:55:24;7.30;80.31
64743;HTU21D;51177;45.018;38.982;2022-11-11T23:58:10;7.33;80.31
